Time;durP1;ratioP1;P1;durP2;ratioP2;P2;SDS_P1;SDS_P2;PMS_P1;PMS_P2;Temp;Humidity;BMP_temperature;BMP_pressure;BME280_temperature;BME280_humidity;BME280_pressure;Samples;Min_cycle;Max_cycle;Signal;HPM_P1;HPM_P2
2023/02/17 00:01:44;;;;;;;33.83;22.50;;;;;;;8.72;82.42;101416.06;5021210;28;20221;-75
2023/02/17 00:04:14;;;;;;;26.13;18.17;;;;;;;8.57;84.69;101409.72;5019370;28;20198;-73
2023/02/17 00:06:43;;;;;;;33.33;23.55;;;;;;;8.54;85.32;101403.84;5035953;28;20212;-72
2023/02/17 00:09:12;;;;;;;35.58;22.83;;;;;;;8.38;87.94;101393.13;5047425;28;20667;-73
2023/02/17 00:11:41;;;;;;;33.58;21.35;;;;;;;8.37;89.20;101391.47;5034122;28;20221;-73
2023/02/17 00:14:13;;;;;;;34.83;21.95;;;;;;;8.35;89.83;101382.69;5021061;28;20193;-73
2023/02/17 00:16:43;;;;;;;33.72;23.10;;;;;;;8.33;90.80;101380.16;5015200;28;20587;-74
2023/02/17 00:19:25;;;;;;;33.15;23.02;;;;;;;8.18;91.46;101376.53;5024320;28;20247;-71
2023/02/17 00:21:56;;;;;;;36.40;23.30;;;;;;;8.26;91.37;101369.25;5007633;28;20305;-73
2023/02/17 00:24:26;;;;;;;31.48;23.92;;;;;;;8.16;91.27;101365.91;5047011;28;20197;-73
2023/02/17 00:26:55;;;;;;;32.75;23.27;;;;;;;8.07;92.01;101375.03;5035118;28;20722;-74
2023/02/17 00:29:27;;;;;;;34.60;24.10;;;;;;;8.19;92.21;101370.94;5043590;28;20188;-73
2023/02/17 00:31:56;;;;;;;38.10;21.90;;;;;;;8.15;92.88;101366.91;5027725;28;20201;-73
2023/02/17 00:34:27;;;;;;;37.85;27.60;;;;;;;8.22;92.71;101362.53;5014578;28;20224;-74
2023/02/17 00:36:56;;;;;;;36.65;25.75;;;;;;;8.25;92.69;101367.56;5041827;28;20253;-74
2023/02/17 00:39:26;;;;;;;49.33;27.13;;;;;;;8.09;93.03;101370.31;5016529;28;20196;-74
2023/02/17 00:41:55;;;;;;;41.35;26.00;;;;;;;8.16;93.09;101365.06;5012117;28;20295;-74
2023/02/17 00:44:52;;;;;;;42.28;26.10;;;;;;;8.29;92.60;101368.03;5018077;28;20606;-73
2023/02/17 00:47:51;;;;;;;39.78;25.42;;;;;;;8.18;93.08;101358.47;5030567;28;20213;-72
2023/02/17 00:51:12;;;;;;;39.45;25.08;;;;;;;8.28;92.88;101352.84;5042985;28;20212;-72
2023/02/17 00:53:42;;;;;;;35.05;25.42;;;;;;;8.32;92.17;101340.75;5026075;28;20260;-72
2023/02/17 00:56:11;;;;;;;37.95;26.70;;;;;;;8.17;92.25;101332.56;5025656;28;20640;-72
2023/02/17 00:58:41;;;;;;;34.70;23.88;;;;;;;8.17;92.93;101334.41;5023341;28;20201;-72
2023/02/17 01:01:12;;;;;;;40.55;26.25;;;;;;;8.15;93.16;101334.56;5026129;28;20714;-75
2023/02/17 01:03:41;;;;;;;37.85;25.50;;;;;;;8.15;92.93;101325.63;5018091;28;20194;-73
2023/02/17 01:06:21;;;;;;;35.20;23.70;;;;;;;8.10;92.98;101326.16;5026981;28;20244;-73
2023/02/17 01:08:51;;;;;;;35.10;24.33;;;;;;;8.08;93.41;101325.53;5040779;28;20213;-73
2023/02/17 01:11:24;;;;;;;34.10;22.15;;;;;;;8.06;93.19;101314.06;5020241;28;20228;-73
2023/02/17 01:13:55;;;;;;;38.38;24.13;;;;;;;8.22;92.67;101314.00;5011546;28;20288;-73
2023/02/17 01:16:27;;;;;;;37.47;22.95;;;;;;;8.08;93.31;101311.19;5020187;28;20259;-73
2023/02/17 01:19:07;;;;;;;36.83;23.52;;;;;;;8.10;93.06;101314.53;5017820;28;20232;-73
2023/02/17 01:21:36;;;;;;;35.00;22.58;;;;;;;8.04;92.94;101310.69;5013825;28;20216;-74
2023/02/17 01:24:07;;;;;;;39.53;23.77;;;;;;;7.97;93.65;101309.72;5019650;28;20292;-74
2023/02/17 01:26:38;;;;;;;38.42;24.60;;;;;;;8.02;94.37;101296.56;5015682;28;20316;-73
2023/02/17 01:29:09;;;;;;;38.28;26.70;;;;;;;8.23;92.90;101294.06;5035581;28;20671;-73
2023/02/17 01:31:40;;;;;;;38.88;23.27;;;;;;;8.11;92.65;101295.50;5027830;28;20252;-74
2023/02/17 01:34:13;;;;;;;36.25;26.25;;;;;;;8.18;93.22;101280.28;5032200;28;20200;-74
2023/02/17 01:36:42;;;;;;;40.58;24.83;;;;;;;8.08;93.32;101285.09;5023157;28;20690;-73
2023/02/17 01:39:13;;;;;;;39.95;25.05;;;;;;;8.20;92.97;101282.81;5016623;28;20205;-71
2023/02/17 01:41:43;;;;;;;37.67;23.75;;;;;;;8.18;92.99;101282.97;5026110;28;20228;-73
2023/02/17 01:44:18;;;;;;;40.65;26.20;;;;;;;8.20;92.76;101282.81;5036073;28;20231;-71
2023/02/17 01:46:49;;;;;;;43.60;26.63;;;;;;;8.20;92.42;101283.66;5038434;28;20209;-73
2023/02/17 01:49:26;;;;;;;37.45;24.98;;;;;;;8.20;92.50;101274.72;5042896;28;20220;-75
2023/02/17 01:52:00;;;;;;;36.17;24.63;;;;;;;8.26;92.81;101268.63;5016297;28;20189;-73
2023/02/17 01:54:34;;;;;;;39.60;26.52;;;;;;;8.21;92.71;101266.47;5036712;28;20186;-74
2023/02/17 01:57:03;;;;;;;39.80;25.63;;;;;;;8.09;93.07;101265.19;5021107;28;20324;-72
2023/02/17 01:59:33;;;;;;;46.63;27.38;;;;;;;8.24;93.23;101262.56;5023506;28;20217;-71
2023/02/17 02:02:05;;;;;;;37.90;27.25;;;;;;;8.22;93.40;101262.75;5041228;28;20284;-72
2023/02/17 02:04:39;;;;;;;43.72;26.40;;;;;;;8.23;93.58;101267.13;5021145;28;20695;-75
2023/02/17 02:07:14;;;;;;;39.72;26.92;;;;;;;8.18;94.42;101253.31;5028654;28;20220;-74
2023/02/17 02:09:47;;;;;;;41.92;25.35;;;;;;;8.17;96.25;101242.75;5012788;28;20239;-73
2023/02/17 02:12:20;;;;;;;40.35;26.33;;;;;;;8.22;97.33;101245.75;5011630;28;20195;-72
2023/02/17 02:14:49;;;;;;;41.83;25.17;;;;;;;8.09;98.57;101243.63;5049932;28;20593;-74
2023/02/17 02:17:33;;;;;;;48.78;27.80;;;;;;;8.10;99.89;101228.28;5028834;28;20213;-75
2023/02/17 02:20:33;;;;;;;41.70;26.77;;;;;;;7.86;100.00;101227.41;5031090;28;20304;-76
2023/02/17 02:23:23;;;;;;;42.95;28.27;;;;;;;7.76;100.00;101221.41;5009294;28;20666;-73
2023/02/17 02:26:32;;;;;;;50.05;29.73;;;;;;;7.60;100.00;101207.19;5014138;28;20667;-73
2023/02/17 02:29:25;;;;;;;44.25;26.10;;;;;;;7.62;100.00;101202.44;5028366;28;20292;-73
2023/02/17 02:32:09;;;;;;;40.25;25.77;;;;;;;7.68;100.00;101185.59;5046769;28;20281;-74
2023/02/17 02:34:45;;;;;;;40.58;28.17;;;;;;;7.63;100.00;101185.28;5013006;28;20202;-72
2023/02/17 02:37:18;;;;;;;46.83;28.15;;;;;;;7.55;100.00;101180.75;5002927;28;20221;-73
2023/02/17 02:39:51;;;;;;;36.15;25.23;;;;;;;7.63;100.00;101185.28;5046236;28;20196;-74
2023/02/17 02:42:23;;;;;;;39.30;26.00;;;;;;;7.57;100.00;101180.59;5025979;28;20682;-74
2023/02/17 02:44:52;;;;;;;44.10;25.92;;;;;;;7.54;100.00;101186.34;5008187;28;20743;-72
2023/02/17 02:47:44;;;;;;;45.08;27.83;;;;;;;7.50;100.00;101182.31;5016091;28;20316;-74
2023/02/17 02:50:23;;;;;;;43.65;28.98;;;;;;;7.43;100.00;101172.25;5022629;28;20200;-74
2023/02/17 02:53:11;;;;;;;43.83;29.27;;;;;;;7.40;100.00;101164.53;5014892;28;20192;-75
2023/02/17 02:55:52;;;;;;;42.47;28.30;;;;;;;7.35;100.00;101161.50;5017845;28;20336;-71
2023/02/17 02:58:28;;;;;;;48.60;31.88;;;;;;;7.45;100.00;101168.53;5015921;28;20578;-73
2023/02/17 03:01:04;;;;;;;41.47;27.25;;;;;;;7.51;100.00;101157.88;5010591;28;20645;-73
2023/02/17 03:03:41;;;;;;;46.53;29.48;;;;;;;7.47;100.00;101155.72;5018112;28;20288;-73
2023/02/17 03:06:20;;;;;;;45.10;28.60;;;;;;;7.55;100.00;101148.44;5017209;28;20315;-74
2023/02/17 03:08:54;;;;;;;41.75;28.88;;;;;;;7.41;100.00;101131.16;5016826;28;20205;-72
2023/02/17 03:11:31;;;;;;;55.85;32.30;;;;;;;7.34;100.00;101126.69;5011438;28;20193;-74
2023/02/17 03:14:03;;;;;;;42.38;28.83;;;;;;;7.42;100.00;101140.94;5009698;28;20239;-72
2023/02/17 03:16:34;;;;;;;47.03;29.98;;;;;;;7.53;100.00;101138.88;5046506;28;20232;-74
2023/02/17 03:19:04;;;;;;;41.03;27.70;;;;;;;7.38;100.00;101123.47;5036997;28;20281;-73
2023/02/17 03:21:39;;;;;;;45.25;30.75;;;;;;;7.52;100.00;101121.03;5010445;28;20712;-73
2023/02/17 03:24:09;;;;;;;49.45;30.05;;;;;;;7.49;100.00;101126.78;5022904;28;20200;-74
2023/02/17 03:26:38;;;;;;;44.28;31.90;;;;;;;7.52;100.00;101131.78;5029484;28;20247;-74
2023/02/17 03:29:08;;;;;;;52.55;31.95;;;;;;;7.39;100.00;101129.69;5026345;28;20219;-73
2023/02/17 03:31:37;;;;;;;56.53;33.65;;;;;;;7.43;100.00;101134.53;5016631;28;20228;-73
2023/02/17 03:34:07;;;;;;;50.78;33.47;;;;;;;7.48;100.00;101135.88;5011773;28;20206;-73
2023/02/17 03:36:38;;;;;;;59.25;38.50;;;;;;;7.47;100.00;101139.56;5027740;28;20320;-73
2023/02/17 03:39:07;;;;;;;56.25;33.85;;;;;;;7.61;100.00;101138.81;5037583;28;20235;-73
2023/02/17 03:41:36;;;;;;;53.60;32.45;;;;;;;7.62;100.00;101132.41;5016299;28;20288;-74
2023/02/17 03:44:05;;;;;;;61.30;31.45;;;;;;;7.72;100.00;101130.34;5021532;28;20204;-73
2023/02/17 03:46:35;;;;;;;50.13;29.88;;;;;;;7.55;100.00;101121.50;5016748;28;20313;-73
2023/02/17 03:49:04;;;;;;;55.28;30.75;;;;;;;7.72;100.00;101122.25;5017293;28;20203;-74
2023/02/17 03:51:33;;;;;;;55.70;32.20;;;;;;;7.67;100.00;101119.25;5016396;28;20215;-75
2023/02/17 03:54:03;;;;;;;46.95;31.05;;;;;;;7.59;100.00;101122.00;5016831;28;20227;-74
2023/02/17 03:56:32;;;;;;;50.42;33.22;;;;;;;7.62;100.00;101117.09;5019106;28;20243;-71
2023/02/17 03:59:01;;;;;;;52.85;33.85;;;;;;;7.57;100.00;101118.63;5011965;28;20248;-73
2023/02/17 04:05:16;;;;;;;44.35;28.75;;;;;;;7.71;100.00;101104.41;5012380;28;20617;-73
2023/02/17 04:07:45;;;;;;;45.53;29.42;;;;;;;7.75;100.00;101103.03;5021784;28;20225;-75
2023/02/17 04:10:17;;;;;;;44.83;30.80;;;;;;;7.81;100.00;101100.47;5018393;28;20204;-74
2023/02/17 04:12:46;;;;;;;45.22;32.05;;;;;;;7.75;100.00;101093.09;5026655;28;20202;-72
2023/02/17 04:15:15;;;;;;;43.63;29.50;;;;;;;7.75;100.00;101089.56;5010609;28;20185;-71
2023/02/17 04:17:44;;;;;;;45.33;29.95;;;;;;;7.79;100.00;101097.09;5019029;28;20217;-73
2023/02/17 04:20:14;;;;;;;50.85;28.90;;;;;;;7.83;100.00;101093.06;5037926;28;20204;-73
2023/02/17 04:22:45;;;;;;;44.85;31.58;;;;;;;7.82;100.00;101095.91;5049851;28;20205;-73
2023/02/17 04:25:15;;;;;;;39.97;26.95;;;;;;;7.82;100.00;101087.84;5019606;28;20221;-72
2023/02/17 04:27:44;;;;;;;44.55;28.08;;;;;;;7.79;100.00;101090.91;5025115;28;20223;-73
2023/02/17 04:30:14;;;;;;;34.53;25.23;;;;;;;7.83;100.00;101076.06;5039378;28;20204;-72
2023/02/17 04:32:43;;;;;;;44.08;27.90;;;;;;;7.80;100.00;101077.22;5027895;28;20225;-72
2023/02/17 04:35:12;;;;;;;40.40;25.75;;;;;;;7.78;100.00;101071.22;5024357;28;20220;-72
2023/02/17 04:37:41;;;;;;;43.88;27.42;;;;;;;7.75;100.00;101073.41;5022448;28;20217;-72
2023/02/17 04:40:11;;;;;;;37.28;25.98;;;;;;;7.77;100.00;101056.06;5029680;28;20261;-75
2023/02/17 04:42:42;;;;;;;40.05;27.30;;;;;;;7.85;100.00;101080.22;5039248;28;20211;-73
2023/02/17 04:45:11;;;;;;;37.85;28.58;;;;;;;7.78;100.00;101083.84;5058325;28;20205;-72
2023/02/17 04:47:41;;;;;;;38.88;26.55;;;;;;;7.90;100.00;101086.94;5005579;28;20573;-72
2023/02/17 04:50:11;;;;;;;34.13;24.25;;;;;;;7.83;100.00;101078.75;5029673;28;20299;-73
2023/02/17 04:52:40;;;;;;;42.30;26.25;;;;;;;7.71;100.00;101072.91;5046607;28;20201;-73
2023/02/17 04:55:10;;;;;;;40.40;26.15;;;;;;;7.77;100.00;101057.91;5033983;28;20209;-73
2023/02/17 04:57:39;;;;;;;34.88;25.25;;;;;;;7.80;100.00;101055.69;5028308;28;20221;-74
2023/02/17 05:00:10;;;;;;;39.92;25.25;;;;;;;7.89;100.00;101052.94;5045730;28;20209;-73
2023/02/17 05:02:39;;;;;;;35.05;24.65;;;;;;;7.89;100.00;101050.25;5046800;28;20269;-75
2023/02/17 05:05:14;;;;;;;32.90;24.67;;;;;;;7.89;100.00;101056.44;5032129;28;20278;-75
2023/02/17 05:07:43;;;;;;;36.53;24.30;;;;;;;7.93;100.00;101059.63;5020109;28;20322;-71
2023/02/17 05:10:13;;;;;;;40.85;25.88;;;;;;;7.93;100.00;101051.56;5013594;28;20234;-72
2023/02/17 05:12:42;;;;;;;39.38;28.70;;;;;;;7.90;100.00;101047.34;5020537;28;20236;-71
2023/02/17 05:15:13;;;;;;;36.70;26.42;;;;;;;7.95;100.00;101046.81;5018052;28;20687;-73
2023/02/17 05:17:42;;;;;;;41.08;24.98;;;;;;;7.93;100.00;101044.31;5015285;28;20324;-72
2023/02/17 05:20:12;;;;;;;37.70;26.60;;;;;;;7.92;100.00;101042.63;5032639;28;20616;-72
2023/02/17 05:22:41;;;;;;;36.17;25.35;;;;;;;7.96;100.00;101038.53;5021839;28;20189;-72
2023/02/17 05:25:10;;;;;;;43.67;26.00;;;;;;;7.93;100.00;101035.38;5010383;28;20205;-73
2023/02/17 05:27:39;;;;;;;38.60;26.73;;;;;;;7.90;100.00;101033.88;5018059;28;20320;-73
2023/02/17 05:30:09;;;;;;;42.78;26.27;;;;;;;7.97;100.00;101042.94;5016962;28;20190;-74
2023/02/17 05:32:39;;;;;;;39.92;25.50;;;;;;;8.01;100.00;101036.16;5043884;28;20201;-74
2023/02/17 05:35:09;;;;;;;34.03;25.23;;;;;;;7.96;100.00;101027.78;5017590;28;20201;-73
2023/02/17 05:37:38;;;;;;;34.53;24.88;;;;;;;7.99;100.00;101027.38;5014302;28;20271;-72
2023/02/17 05:40:13;;;;;;;38.92;25.92;;;;;;;7.98;100.00;101024.91;5056324;28;20196;-71
2023/02/17 05:42:42;;;;;;;42.92;26.48;;;;;;;8.10;100.00;101026.13;5016619;28;20192;-72
2023/02/17 05:45:11;;;;;;;43.15;28.35;;;;;;;8.09;100.00;101027.97;5026531;28;20205;-71
2023/02/17 05:47:41;;;;;;;38.15;26.65;;;;;;;8.07;100.00;101024.66;5011063;28;20353;-73
2023/02/17 05:50:11;;;;;;;32.50;22.35;;;;;;;8.04;100.00;101025.00;5046470;28;20299;-72
2023/02/17 05:52:40;;;;;;;37.17;24.70;;;;;;;8.06;100.00;101027.50;5034321;28;20197;-73
2023/02/17 05:55:09;;;;;;;37.40;24.25;;;;;;;8.04;100.00;101022.28;5045689;28;20212;-72
2023/02/17 05:57:39;;;;;;;34.90;25.42;;;;;;;8.12;100.00;101021.41;5020134;28;20217;-71
2023/02/17 06:00:09;;;;;;;37.35;24.48;;;;;;;7.95;100.00;101020.69;5046665;28;20201;-72
2023/02/17 06:02:42;;;;;;;36.47;24.65;;;;;;;7.95;100.00;101017.16;5025464;28;20281;-70
2023/02/17 06:05:11;;;;;;;42.05;28.55;;;;;;;7.99;100.00;101016.63;5025107;28;20218;-74
2023/02/17 06:07:40;;;;;;;37.55;27.08;;;;;;;8.03;100.00;101000.94;5023353;28;20213;-73
2023/02/17 06:10:11;;;;;;;35.00;26.08;;;;;;;8.03;100.00;101007.16;5027727;28;20201;-73
2023/02/17 06:12:40;;;;;;;37.67;25.65;;;;;;;8.08;100.00;101002.06;5029445;28;20190;-73
2023/02/17 06:15:10;;;;;;;48.67;25.83;;;;;;;8.13;100.00;100994.25;5028886;28;20212;-73
2023/02/17 06:17:39;;;;;;;35.65;24.13;;;;;;;8.18;100.00;100994.53;5018067;28;20229;-71
2023/02/17 06:20:11;;;;;;;39.60;27.52;;;;;;;8.21;100.00;100982.56;5013584;28;20197;-74
2023/02/17 06:22:41;;;;;;;44.72;26.05;;;;;;;8.18;100.00;100988.31;5050196;28;20205;-74
2023/02/17 06:25:10;;;;;;;38.38;24.83;;;;;;;8.20;100.00;100986.25;5016007;28;20238;-74
2023/02/17 06:27:40;;;;;;;36.67;24.50;;;;;;;8.21;100.00;100982.56;5032278;28;20648;-72
2023/02/17 06:30:10;;;;;;;34.05;21.88;;;;;;;8.21;100.00;100980.69;5035891;28;20193;-72
2023/02/17 06:32:40;;;;;;;35.45;25.27;;;;;;;8.20;100.00;100984.41;5020617;28;20229;-73
2023/02/17 06:39:41;;;;;;;33.72;21.55;;;;;;;8.13;100.00;100986.16;5050223;28;20187;-74
2023/02/17 06:42:10;;;;;;;36.50;25.00;;;;;;;8.16;100.00;100976.88;5014703;28;20647;-74
2023/02/17 06:44:39;;;;;;;34.20;23.50;;;;;;;8.21;100.00;100986.09;5028961;28;20772;-72
2023/02/17 06:47:08;;;;;;;35.47;23.65;;;;;;;8.33;100.00;100981.09;5012295;28;20235;-73
2023/02/17 06:49:37;;;;;;;36.65;24.50;;;;;;;8.43;100.00;100976.25;5021588;28;20205;-71
2023/02/17 06:52:09;;;;;;;34.83;25.35;;;;;;;8.33;100.00;100975.69;5025021;28;20231;-72
2023/02/17 06:54:38;;;;;;;32.83;20.90;;;;;;;8.39;100.00;100979.53;5017308;28;20205;-73
2023/02/17 06:57:08;;;;;;;36.80;23.35;;;;;;;8.52;100.00;100966.25;5039602;28;20225;-72
2023/02/17 06:59:37;;;;;;;29.77;20.92;;;;;;;8.65;100.00;100972.63;5008074;28;20734;-71
2023/02/17 07:02:07;;;;;;;35.75;23.70;;;;;;;8.52;100.00;100967.03;5033048;28;20190;-73
2023/02/17 07:04:36;;;;;;;31.80;22.60;;;;;;;8.69;100.00;100965.00;5020104;28;20300;-71
2023/02/17 07:07:05;;;;;;;26.40;19.50;;;;;;;8.61;100.00;100959.72;5033684;28;20216;-71
2023/02/17 07:09:34;;;;;;;34.30;21.63;;;;;;;8.65;100.00;100955.63;5041722;28;20198;-72
2023/02/17 07:12:03;;;;;;;29.50;19.67;;;;;;;8.70;100.00;100951.34;5007971;28;20200;-72
2023/02/17 07:14:35;;;;;;;30.83;22.80;;;;;;;8.80;100.00;100955.59;5023026;28;20212;-72
2023/02/17 07:17:04;;;;;;;32.17;23.50;;;;;;;8.83;100.00;100958.75;5019958;28;20221;-72
2023/02/17 07:19:33;;;;;;;38.85;23.55;;;;;;;8.85;100.00;100959.41;5034460;28;20198;-74
2023/02/17 07:22:03;;;;;;;32.28;22.50;;;;;;;8.76;100.00;100954.31;5007950;28;20675;-72
2023/02/17 07:24:32;;;;;;;30.70;22.35;;;;;;;8.88;100.00;100959.00;5030925;28;20303;-73
2023/02/17 07:27:01;;;;;;;34.60;23.27;;;;;;;8.82;100.00;100953.53;5020076;28;20225;-71
2023/02/17 07:29:30;;;;;;;27.43;20.90;;;;;;;8.94;100.00;100958.25;5033330;28;20204;-73
2023/02/17 07:32:01;;;;;;;30.77;21.77;;;;;;;8.93;100.00;100947.66;5010460;28;20967;-72
2023/02/17 07:34:30;;;;;;;35.80;21.83;;;;;;;9.04;100.00;100947.16;5015499;28;21002;-72
2023/02/17 07:36:59;;;;;;;29.90;20.27;;;;;;;9.07;100.00;100953.00;5053659;28;20843;-72
2023/02/17 07:39:28;;;;;;;30.67;22.40;;;;;;;9.19;100.00;100944.41;5014675;28;20287;-73
2023/02/17 07:41:59;;;;;;;27.48;20.05;;;;;;;9.12;100.00;100942.47;5032242;28;20244;-73
2023/02/17 07:44:28;;;;;;;24.48;18.60;;;;;;;9.13;100.00;100933.34;5015960;28;20695;-74
2023/02/17 07:46:57;;;;;;;27.50;19.88;;;;;;;9.19;100.00;100933.59;5017417;28;20245;-73
2023/02/17 07:49:28;;;;;;;26.10;20.07;;;;;;;9.37;100.00;100926.72;5020549;28;20189;-73
2023/02/17 07:51:57;;;;;;;22.55;18.00;;;;;;;9.40;100.00;100928.19;5035416;28;20519;-72
2023/02/17 07:54:26;;;;;;;25.02;18.50;;;;;;;9.30;100.00;100928.50;5029715;28;20199;-72
2023/02/17 07:56:55;;;;;;;21.35;17.13;;;;;;;9.41;100.00;100925.31;5015134;28;20245;-72
2023/02/17 07:59:24;;;;;;;20.83;17.40;;;;;;;9.42;100.00;100923.44;5032484;28;20216;-73
2023/02/17 08:01:53;;;;;;;25.05;17.92;;;;;;;9.55;100.00;100926.25;5009031;28;21072;-73
2023/02/17 08:04:22;;;;;;;22.20;17.58;;;;;;;9.48;100.00;100922.66;5016548;28;20645;-72
2023/02/17 08:06:52;;;;;;;21.60;16.33;;;;;;;9.56;99.84;100925.22;5024338;28;20234;-72
2023/02/17 08:15:01;;;;;;;18.42;15.38;;;;;;;9.44;100.00;100929.50;5004268;28;20205;-71
2023/02/17 08:17:30;;;;;;;19.65;14.75;;;;;;;9.53;100.00;100925.63;5012857;28;20218;-72
2023/02/17 08:20:00;;;;;;;20.27;16.07;;;;;;;9.48;100.00;100922.66;5008641;28;20197;-71
2023/02/17 08:22:37;;;;;;;18.25;14.10;;;;;;;9.64;100.00;100927.78;5032779;28;20459;-71
2023/02/17 08:25:06;;;;;;;19.70;16.30;;;;;;;9.55;100.00;100923.56;5025370;28;20282;-72
2023/02/17 08:27:36;;;;;;;20.47;14.93;;;;;;;9.57;100.00;100916.09;5033843;28;20217;-74
2023/02/17 08:30:06;;;;;;;17.90;14.00;;;;;;;9.67;100.00;100907.66;5011039;28;20479;-73
2023/02/17 08:32:35;;;;;;;19.97;15.23;;;;;;;9.60;100.00;100913.00;5032887;28;20456;-72
2023/02/17 08:35:35;;;;;;;18.95;16.30;;;;;;;9.55;100.00;100905.47;5016178;28;20461;-73
2023/02/17 08:38:06;;;;;;;20.02;17.02;;;;;;;9.50;100.00;100904.38;5049090;28;20220;-72
2023/02/17 08:40:35;;;;;;;23.60;14.77;;;;;;;9.50;100.00;100904.38;5022497;28;20296;-74
2023/02/17 08:43:06;;;;;;;17.55;15.43;;;;;;;9.30;100.00;100897.97;5018638;28;20205;-71
2023/02/17 08:45:36;;;;;;;24.40;14.55;;;;;;;9.44;100.00;100902.50;5027273;28;20210;-72
2023/02/17 08:48:06;;;;;;;18.05;15.35;;;;;;;9.56;100.00;100901.75;5036413;28;20316;-72
2023/02/17 08:50:35;;;;;;;22.83;18.15;;;;;;;9.51;100.00;100895.25;5029688;28;20200;-73
2023/02/17 08:53:06;;;;;;;21.60;16.33;;;;;;;9.48;100.00;100893.81;5022022;28;20224;-74
2023/02/17 08:55:35;;;;;;;21.48;16.17;;;;;;;9.66;100.00;100887.06;5040946;28;20208;-73
2023/02/17 08:58:17;;;;;;;19.92;15.60;;;;;;;9.68;100.00;100877.75;5034131;28;20193;-74
2023/02/17 09:00:46;;;;;;;21.20;15.43;;;;;;;9.53;100.00;100879.72;5025449;28;20192;-73
2023/02/17 09:03:15;;;;;;;22.65;16.83;;;;;;;9.64;100.00;100872.91;5051925;28;20185;-72
2023/02/17 09:05:44;;;;;;;23.45;15.50;;;;;;;9.55;100.00;100861.41;5046732;28;20235;-73
2023/02/17 09:08:15;;;;;;;23.38;15.68;;;;;;;9.78;100.00;100853.88;5025597;28;20209;-73
2023/02/17 09:10:44;;;;;;;19.80;17.67;;;;;;;9.70;100.00;100851.34;5028463;28;20240;-72
2023/02/17 09:13:13;;;;;;;24.57;17.70;;;;;;;9.70;100.00;100842.41;5020796;28;20418;-72
2023/02/17 09:15:42;;;;;;;23.80;17.93;;;;;;;9.65;100.00;100834.88;5036665;28;20495;-72
2023/02/17 09:18:11;;;;;;;29.13;20.70;;;;;;;9.68;100.00;100839.91;5020071;28;20449;-71
2023/02/17 09:20:41;;;;;;;24.33;19.65;;;;;;;9.68;100.00;100828.28;5016933;28;20448;-70
2023/02/17 09:23:10;;;;;;;32.30;21.60;;;;;;;9.82;100.00;100825.44;5019264;28;20220;-73
2023/02/17 09:25:40;;;;;;;29.33;21.38;;;;;;;9.83;100.00;100821.69;5031046;28;20902;-72
2023/02/17 09:28:10;;;;;;;28.10;22.27;;;;;;;9.84;100.00;100812.56;5017288;28;20317;-69
2023/02/17 09:30:39;;;;;;;28.63;20.73;;;;;;;9.83;100.00;100807.34;5040216;28;20467;-70
2023/02/17 09:33:08;;;;;;;25.08;20.25;;;;;;;9.80;100.00;100808.59;5044489;28;20452;-72
2023/02/17 09:35:38;;;;;;;22.98;18.35;;;;;;;9.82;100.00;100801.13;5048169;28;20665;-72
2023/02/17 09:38:09;;;;;;;25.73;20.57;;;;;;;9.86;100.00;100798.84;5036116;28;20209;-72
2023/02/17 09:40:46;;;;;;;25.30;19.80;;;;;;;9.95;100.00;100789.53;5018975;28;20806;-73
2023/02/17 09:43:17;;;;;;;24.70;17.03;;;;;;;10.02;100.00;100796.63;5040831;28;20451;-73
2023/02/17 09:45:51;;;;;;;27.90;18.50;;;;;;;9.97;100.00;100788.28;5012444;28;20487;-72
2023/02/17 09:48:25;;;;;;;18.17;15.63;;;;;;;10.01;100.00;100778.78;5013377;28;20423;-74
2023/02/17 09:50:58;;;;;;;27.83;18.53;;;;;;;9.75;100.00;100781.31;5030192;28;20466;-71
2023/02/17 09:53:34;;;;;;;27.20;17.77;;;;;;;9.82;100.00;100784.06;5035907;28;20470;-71
2023/02/17 09:56:09;;;;;;;26.80;16.57;;;;;;;9.81;100.00;100783.25;5032704;28;20795;-72
2023/02/17 09:58:43;;;;;;;22.00;16.37;;;;;;;9.81;100.00;100777.84;5026075;28;20960;-72
2023/02/17 10:01:18;;;;;;;21.93;15.43;;;;;;;9.88;100.00;100781.38;5026978;28;20483;-72
2023/02/17 10:03:52;;;;;;;21.30;16.60;;;;;;;9.85;100.00;100772.84;5031536;28;20484;-73
2023/02/17 10:06:26;;;;;;;23.60;18.43;;;;;;;9.69;100.00;100765.91;5019520;28;20459;-73
2023/02/17 10:09:01;;;;;;;21.07;18.20;;;;;;;9.83;100.00;100758.69;5027740;28;20466;-74
2023/02/17 10:11:35;;;;;;;23.55;17.30;;;;;;;9.79;100.00;100766.38;5055059;28;20451;-73
2023/02/17 10:14:09;;;;;;;22.93;18.07;;;;;;;9.80;100.00;100762.66;5027758;28;20216;-74
2023/02/17 10:16:45;;;;;;;18.73;15.90;;;;;;;9.72;100.00;100752.00;5019282;28;20891;-73
2023/02/17 10:19:19;;;;;;;24.60;18.70;;;;;;;9.88;100.00;100757.06;5024194;28;20873;-74
2023/02/17 10:22:05;;;;;;;23.90;18.10;;;;;;;9.92;100.00;100744.81;5035657;28;20410;-75
2023/02/17 10:24:38;;;;;;;27.10;19.27;;;;;;;9.86;100.00;100742.94;5028324;28;20443;-74
2023/02/17 10:27:37;;;;;;;26.80;20.80;;;;;;;9.83;100.00;100734.38;5027286;28;20487;-74
2023/02/17 10:30:26;;;;;;;30.50;19.10;;;;;;;9.85;100.00;100716.09;5052835;28;20451;-75
2023/02/17 10:33:01;;;;;;;23.30;17.97;;;;;;;9.84;100.00;100712.56;5051312;28;20197;-73
2023/02/17 10:35:50;;;;;;;26.57;19.40;;;;;;;9.79;100.00;100711.50;5039964;28;20426;-73
2023/02/17 10:38:31;;;;;;;26.45;18.05;;;;;;;9.89;100.00;100706.53;5024853;28;20808;-74
2023/02/17 10:41:03;;;;;;;26.40;19.03;;;;;;;9.90;100.00;100705.50;5051824;28;20199;-73
2023/02/17 10:43:34;;;;;;;25.47;20.13;;;;;;;10.13;100.00;100702.47;5046249;28;20436;-73
2023/02/17 10:46:07;;;;;;;25.00;21.07;;;;;;;10.14;100.00;100701.44;5024003;28;20449;-73
2023/02/17 10:48:40;;;;;;;27.50;20.43;;;;;;;10.04;100.00;100691.84;5047420;28;20439;-74
2023/02/17 10:51:15;;;;;;;25.87;20.13;;;;;;;10.20;100.00;100690.69;5038208;28;20434;-72
2023/02/17 10:53:48;;;;;;;31.73;21.30;;;;;;;10.17;100.00;100684.81;5038219;28;20438;-73
2023/02/17 10:56:21;;;;;;;28.03;20.73;;;;;;;10.21;100.00;100680.69;5027827;28;20482;-74
2023/02/17 10:58:57;;;;;;;24.70;20.97;;;;;;;10.34;100.00;100680.72;5029374;28;20431;-73
2023/02/17 11:01:28;;;;;;;27.00;20.70;;;;;;;10.29;100.00;100665.09;5018649;28;20483;-73
2023/02/17 11:04:02;;;;;;;27.60;21.77;;;;;;;10.22;100.00;100668.81;5009911;28;20475;-73
2023/02/17 11:06:32;;;;;;;24.13;20.77;;;;;;;10.21;100.00;100659.06;5042189;28;20853;-73
2023/02/17 11:09:04;;;;;;;31.43;19.50;;;;;;;10.19;100.00;100644.91;5020431;28;20456;-71
2023/02/17 11:11:36;;;;;;;32.30;21.60;;;;;;;10.45;100.00;100639.53;5021518;28;20477;-71
2023/02/17 11:14:18;;;;;;;29.50;22.10;;;;;;;10.50;100.00;100628.91;5031278;28;20441;-71
2023/02/17 11:16:52;;;;;;;30.40;20.10;;;;;;;10.47;100.00;100618.50;5022720;28;20578;-72
2023/02/17 11:19:25;;;;;;;27.17;22.13;;;;;;;10.59;100.00;100611.44;5023272;28;20493;-72
2023/02/17 11:21:55;;;;;;;30.50;21.13;;;;;;;10.56;100.00;100601.00;5017745;28;20937;-72
2023/02/17 11:24:25;;;;;;;31.27;19.83;;;;;;;10.58;100.00;100593.53;5017182;28;20447;-72
2023/02/17 11:27:00;;;;;;;31.43;21.57;;;;;;;10.58;100.00;100601.66;5001077;28;20451;-73
2023/02/17 11:29:31;;;;;;;29.23;21.67;;;;;;;10.58;100.00;100600.81;5014362;28;20502;-74
2023/02/17 11:32:03;;;;;;;27.90;21.07;;;;;;;10.62;100.00;100594.78;5016067;28;20491;-73
2023/02/17 11:34:34;;;;;;;21.10;17.97;;;;;;;10.68;100.00;100593.94;5010120;28;20898;-74
2023/02/17 11:37:20;;;;;;;26.77;18.27;;;;;;;10.77;100.00;100592.66;5015867;28;20906;-74
2023/02/17 11:39:52;;;;;;;19.97;17.07;;;;;;;10.80;100.00;100573.28;5009863;28;20464;-73
2023/02/17 11:42:23;;;;;;;23.77;20.00;;;;;;;10.75;100.00;100564.97;5038588;28;20850;-73
2023/02/17 11:44:56;;;;;;;25.43;19.57;;;;;;;10.78;100.00;100558.31;5055388;28;20551;-72
2023/02/17 11:47:35;;;;;;;18.23;15.70;;;;;;;10.86;100.00;100550.78;5001721;28;20464;-73